Time;durP1;ratioP1;P1;durP2;ratioP2;P2;SDS_P1;SDS_P2;PMS_P1;PMS_P2;Temp;Humidity;BMP_temperature;BMP_pressure;BME280_temperature;BME280_humidity;BME280_pressure;Samples;Min_cycle;Max_cycle;Signal;HPM_P1;HPM_P2
2023/07/15 00:01:36;;;;;;;12.77;10.10;;;;;;;20.86;88.75;100648.66;5063009;28;20041;-72
2023/07/15 00:04:03;;;;;;;12.45;9.70;;;;;;;20.76;88.96;100644.25;5050734;28;20021;-72
2023/07/15 00:06:28;;;;;;;13.45;9.25;;;;;;;20.76;88.98;100647.72;5053417;28;20036;-72
2023/07/15 00:08:55;;;;;;;12.02;9.48;;;;;;;20.71;88.86;100645.09;5052845;28;20020;-77
2023/07/15 00:11:33;;;;;;;13.68;9.70;;;;;;;20.74;89.22;100660.56;5059211;28;20499;-77
2023/07/15 00:14:00;;;;;;;12.23;9.60;;;;;;;20.63;89.20;100643.03;5045238;28;20025;-78
2023/07/15 00:16:27;;;;;;;14.50;9.38;;;;;;;20.69;89.04;100652.63;5045711;28;20047;-77
2023/07/15 00:18:53;;;;;;;11.90;9.18;;;;;;;20.67;88.84;100649.44;5044705;28;20457;-78
2023/07/15 00:21:22;;;;;;;12.13;9.10;;;;;;;20.69;88.85;100659.84;5033092;28;20033;-77
2023/07/15 00:23:55;;;;;;;11.63;8.75;;;;;;;20.67;88.81;100654.78;5044368;28;20037;-77
2023/07/15 00:26:26;;;;;;;11.18;9.23;;;;;;;20.68;88.80;100658.25;5043822;28;20098;-76
2023/07/15 00:28:52;;;;;;;11.68;8.55;;;;;;;20.59;88.66;100637.47;5035533;28;20028;-77
2023/07/15 00:31:19;;;;;;;12.95;8.57;;;;;;;20.68;88.68;100642.97;5048064;28;20151;-77
2023/07/15 00:33:45;;;;;;;15.20;8.77;;;;;;;20.68;88.68;100650.22;5037372;28;20873;-77
2023/07/15 00:36:12;;;;;;;13.55;8.55;;;;;;;20.57;88.92;100639.66;5045786;28;20026;-77
2023/07/15 00:38:38;;;;;;;12.65;8.48;;;;;;;20.63;88.76;100658.31;5028078;28;20063;-76
2023/07/15 00:41:11;;;;;;;11.10;8.20;;;;;;;20.53;89.45;100641.25;5042359;28;20045;-77
2023/07/15 00:44:15;;;;;;;12.13;7.82;;;;;;;20.59;90.31;100652.72;5026557;28;20398;-76
2023/07/15 00:47:03;;;;;;;15.60;7.28;;;;;;;20.48;92.43;100652.03;5039886;28;20031;-77
2023/07/15 00:49:34;;;;;;;8.25;7.43;;;;;;;20.45;91.83;100646.44;5030904;28;20025;-75
2023/07/15 00:52:09;;;;;;;10.50;7.28;;;;;;;20.42;91.93;100647.00;5039069;28;20058;-77
2023/07/15 00:54:46;;;;;;;10.45;7.55;;;;;;;20.31;93.73;100646.34;5027678;28;20037;-77
2023/07/15 00:57:15;;;;;;;13.13;7.60;;;;;;;20.34;92.74;100651.09;5042735;28;20034;-76
2023/07/15 00:59:42;;;;;;;9.93;7.53;;;;;;;20.26;92.64;100643.72;5041178;28;20112;-77
2023/07/15 01:02:12;;;;;;;10.07;7.57;;;;;;;20.30;92.89;100647.41;5037576;28;20045;-77
2023/07/15 01:04:37;;;;;;;13.00;7.93;;;;;;;20.25;93.15;100652.81;5040100;28;20076;-77
2023/07/15 01:07:05;;;;;;;9.82;7.45;;;;;;;20.17;92.88;100648.88;5039602;28;20466;-76
2023/07/15 01:09:31;;;;;;;8.75;7.43;;;;;;;20.18;92.66;100656.63;5024389;28;20029;-76
2023/07/15 01:11:56;;;;;;;14.40;7.40;;;;;;;20.18;92.62;100656.63;5025197;28;20009;-73
2023/07/15 01:14:22;;;;;;;10.93;7.65;;;;;;;20.18;92.38;100653.94;5041090;28;20037;-76
2023/07/15 01:16:47;;;;;;;9.10;6.85;;;;;;;20.14;92.18;100652.91;5039088;28;20032;-76
2023/07/15 01:19:14;;;;;;;11.27;6.88;;;;;;;20.09;92.18;100633.47;5037036;28;20036;-77
2023/07/15 01:21:40;;;;;;;10.85;6.95;;;;;;;20.13;92.09;100653.97;5039131;28;20037;-77
2023/07/15 01:24:08;;;;;;;13.80;6.75;;;;;;;20.14;91.79;100668.16;5037913;28;20057;-77
2023/07/15 01:26:34;;;;;;;8.95;6.65;;;;;;;20.14;91.76;100665.50;5037030;28;20112;-77
2023/07/15 01:28:59;;;;;;;10.13;6.82;;;;;;;20.06;91.71;100661.53;5035729;28;20120;-77
2023/07/15 01:31:26;;;;;;;13.27;6.95;;;;;;;19.93;92.82;100654.19;5040803;28;20079;-76
2023/07/15 01:33:52;;;;;;;9.45;6.40;;;;;;;19.77;93.77;100656.19;5041492;28;20380;-76
2023/07/15 01:36:18;;;;;;;9.30;7.05;;;;;;;19.70;94.47;100667.19;5027937;28;20715;-76
2023/07/15 01:38:43;;;;;;;13.90;7.10;;;;;;;19.57;95.54;100672.34;5035995;28;20049;-76
2023/07/15 01:41:09;;;;;;;10.48;6.70;;;;;;;19.45;95.43;100654.00;5036364;28;20368;-76
2023/07/15 01:43:35;;;;;;;11.38;6.53;;;;;;;19.50;95.24;100667.31;5036651;28;20033;-76
2023/07/15 01:46:00;;;;;;;12.65;6.70;;;;;;;19.43;95.19;100650.81;5044365;28;20028;-76
2023/07/15 01:48:26;;;;;;;12.90;6.57;;;;;;;19.33;96.71;100654.34;5026538;28;20036;-76
2023/07/15 01:50:51;;;;;;;9.98;7.15;;;;;;;19.33;97.21;100665.03;5031806;28;20111;-75
2023/07/15 01:53:17;;;;;;;10.95;7.07;;;;;;;19.26;97.57;100659.97;5039805;28;20028;-75
2023/07/15 01:55:42;;;;;;;10.07;6.95;;;;;;;19.15;97.96;100641.63;5038323;28;20040;-75
2023/07/15 01:58:08;;;;;;;8.50;6.97;;;;;;;19.20;97.44;100653.09;5037622;28;20056;-76
2023/07/15 02:00:34;;;;;;;15.40;7.00;;;;;;;19.18;97.77;100659.75;5037004;28;20074;-76
2023/07/15 02:02:59;;;;;;;10.20;7.13;;;;;;;19.16;97.62;100657.38;5020514;28;20033;-76
2023/07/15 02:05:24;;;;;;;10.55;6.63;;;;;;;19.13;97.49;100660.63;5024643;28;20025;-76
2023/07/15 02:07:50;;;;;;;9.25;7.15;;;;;;;19.09;97.02;100665.69;5037130;28;20090;-74
2023/07/15 02:10:15;;;;;;;14.23;7.75;;;;;;;19.05;96.78;100669.19;5022419;28;20060;-76
2023/07/15 02:12:41;;;;;;;13.43;6.88;;;;;;;18.89;96.94;100649.75;5037835;28;20028;-76
2023/07/15 02:15:07;;;;;;;11.50;7.50;;;;;;;18.94;97.05;100660.44;5023681;28;20171;-76
2023/07/15 02:17:32;;;;;;;11.82;7.32;;;;;;;18.89;97.10;100661.25;5042835;28;20033;-76
2023/07/15 02:19:59;;;;;;;14.20;7.10;;;;;;;18.84;96.87;100666.63;5019417;28;20075;-76
2023/07/15 02:22:25;;;;;;;8.85;7.07;;;;;;;18.73;96.52;100658.91;5036789;28;20022;-75
2023/07/15 02:24:50;;;;;;;10.07;6.97;;;;;;;18.65;96.88;100650.38;5043917;28;20028;-76
2023/07/15 02:27:16;;;;;;;13.20;7.43;;;;;;;18.67;96.63;100653.56;5034909;28;20049;-76
2023/07/15 02:29:43;;;;;;;15.48;7.15;;;;;;;18.67;96.81;100663.44;5036551;28;20029;-76
2023/07/15 02:32:08;;;;;;;21.75;7.00;;;;;;;18.51;96.64;100649.38;5036542;28;20025;-76
2023/07/15 02:34:34;;;;;;;15.27;7.38;;;;;;;18.58;96.84;100665.88;5039206;28;20095;-77
2023/07/15 02:37:00;;;;;;;10.73;7.47;;;;;;;18.49;97.04;100659.50;5026565;28;20032;-76
2023/07/15 02:39:26;;;;;;;11.68;7.05;;;;;;;18.50;97.45;100663.75;5033020;28;20021;-76
2023/07/15 02:41:51;;;;;;;14.82;7.47;;;;;;;18.44;97.06;100660.31;5035225;28;20040;-76
2023/07/15 02:44:17;;;;;;;10.32;7.15;;;;;;;18.44;97.14;100670.97;5037644;28;20033;-76
2023/07/15 02:46:42;;;;;;;13.27;7.47;;;;;;;18.36;97.38;100666.19;5037781;28;20639;-76
2023/07/15 02:49:08;;;;;;;12.90;7.85;;;;;;;18.28;97.39;100653.41;5039507;28;20120;-77
2023/07/15 02:51:34;;;;;;;13.52;7.85;;;;;;;18.30;97.54;100669.94;5022306;28;20021;-76
2023/07/15 02:54:01;;;;;;;16.00;7.63;;;;;;;18.26;97.47;100671.53;5037822;28;20425;-75
2023/07/15 02:56:26;;;;;;;12.20;7.35;;;;;;;18.22;97.30;100667.81;5036937;28;20033;-76
2023/07/15 02:58:51;;;;;;;13.80;7.53;;;;;;;18.22;97.48;100670.47;5035510;28;20036;-75
2023/07/15 03:01:17;;;;;;;13.13;7.60;;;;;;;18.17;97.40;100665.97;5036749;28;20454;-75
2023/07/15 03:03:43;;;;;;;11.63;7.07;;;;;;;18.18;97.39;100672.09;5015562;28;20033;-71
2023/07/15 03:06:09;;;;;;;14.00;7.25;;;;;;;18.23;97.28;100680.88;5037657;28;20670;-72
2023/07/15 03:08:34;;;;;;;13.40;7.25;;;;;;;18.22;97.47;100676.63;5037887;28;20493;-70
2023/07/15 03:11:00;;;;;;;12.85;7.60;;;;;;;18.20;97.28;100676.09;5034900;28;20139;-70
2023/07/15 03:13:25;;;;;;;13.13;7.50;;;;;;;18.07;97.39;100660.63;5034738;28;20029;-69
2023/07/15 03:15:52;;;;;;;10.77;7.53;;;;;;;17.89;97.36;100638.03;5034135;28;20033;-70
2023/07/15 03:18:17;;;;;;;12.02;7.15;;;;;;;18.10;97.52;100668.13;5020797;28;20124;-70
2023/07/15 03:20:43;;;;;;;14.95;7.40;;;;;;;18.09;97.41;100668.38;5018676;28;20462;-71
2023/07/15 03:23:08;;;;;;;13.07;7.38;;;;;;;18.02;97.62;100668.63;5036856;28;20025;-69
2023/07/15 03:25:33;;;;;;;12.88;7.45;;;;;;;18.01;97.67;100667.06;5037167;28;20516;-70
2023/07/15 03:27:59;;;;;;;14.60;7.85;;;;;;;18.01;97.59;100672.38;5037969;28;20052;-71
2023/07/15 03:30:24;;;;;;;10.82;7.30;;;;;;;18.04;97.75;100680.63;5033238;28;20029;-69
2023/07/15 03:32:53;;;;;;;14.02;7.70;;;;;;;17.97;97.90;100680.09;5034805;28;20025;-69
2023/07/15 03:35:18;;;;;;;10.82;7.40;;;;;;;17.92;98.29;100674.78;5032617;28;20544;-70
2023/07/15 03:37:44;;;;;;;12.25;7.35;;;;;;;17.92;98.36;100673.97;5035282;28;20058;-69
2023/07/15 03:40:12;;;;;;;10.57;7.03;;;;;;;17.88;98.78;100672.91;5036166;28;20507;-71
2023/07/15 03:42:41;;;;;;;15.57;7.88;;;;;;;17.91;98.67;100678.50;5034645;28;20123;-70
2023/07/15 03:45:08;;;;;;;14.38;7.38;;;;;;;17.90;99.02;100678.78;5038003;28;20487;-70
2023/07/15 03:47:36;;;;;;;11.70;7.35;;;;;;;17.88;98.95;100681.69;5036804;28;20048;-70
2023/07/15 03:50:04;;;;;;;13.63;8.45;;;;;;;17.80;99.25;100675.03;5038345;28;20024;-70
2023/07/15 03:52:29;;;;;;;13.88;7.65;;;;;;;17.78;99.44;100668.34;5021909;28;20052;-69
2023/07/15 03:54:56;;;;;;;8.43;6.75;;;;;;;17.90;98.99;100681.44;5038681;28;20945;-71
2023/07/15 03:57:22;;;;;;;17.10;7.50;;;;;;;17.93;99.31;100680.91;5038565;28;20025;-71
2023/07/15 03:59:47;;;;;;;13.48;7.90;;;;;;;17.89;99.37;100674.53;5036127;28;20037;-71
2023/07/15 04:02:13;;;;;;;15.48;8.02;;;;;;;17.97;99.54;100676.63;5038497;28;20041;-71
2023/07/15 04:04:38;;;;;;;14.20;7.50;;;;;;;18.02;99.90;100684.63;5035865;28;20489;-71
2023/07/15 04:07:04;;;;;;;11.73;6.95;;;;;;;18.00;100.00;100666.22;5039011;28;20597;-72
2023/07/15 04:09:29;;;;;;;17.08;7.57;;;;;;;18.14;100.00;100682.47;5025614;28;20025;-70
2023/07/15 04:11:55;;;;;;;10.50;7.35;;;;;;;18.20;100.00;100677.97;5039575;28;20641;-69
2023/07/15 04:14:20;;;;;;;11.00;7.22;;;;;;;18.31;100.00;100681.41;5023602;28;20022;-70
2023/07/15 04:16:46;;;;;;;11.45;7.47;;;;;;;18.39;100.00;100683.50;5040198;28;20017;-70
2023/07/15 04:19:11;;;;;;;12.40;7.15;;;;;;;18.46;100.00;100676.84;5028219;28;20040;-69
2023/07/15 04:21:36;;;;;;;11.13;7.85;;;;;;;18.46;100.00;100668.03;5039581;28;20037;-70
2023/07/15 04:24:03;;;;;;;11.75;7.32;;;;;;;18.65;100.00;100678.91;5038628;28;20032;-70
2023/07/15 04:26:28;;;;;;;13.35;7.15;;;;;;;18.74;100.00;100689.81;5038465;28;20023;-69
2023/07/15 04:28:55;;;;;;;11.48;7.15;;;;;;;18.76;100.00;100677.00;5040520;28;20374;-72
2023/07/15 04:31:20;;;;;;;12.65;7.00;;;;;;;18.89;100.00;100689.78;5039604;28;20327;-68
2023/07/15 04:33:48;;;;;;;11.18;6.55;;;;;;;18.89;99.81;100679.94;5029547;28;20071;-71
2023/07/15 04:36:14;;;;;;;11.38;6.18;;;;;;;19.04;99.58;100694.28;5040670;28;20037;-71
2023/07/15 04:38:40;;;;;;;9.43;6.13;;;;;;;19.00;99.03;100664.66;5024338;28;20111;-71
2023/07/15 04:41:05;;;;;;;9.70;5.68;;;;;;;19.28;97.98;100703.22;5041706;28;20093;-71
2023/07/15 04:43:31;;;;;;;11.05;5.53;;;;;;;19.29;97.19;100688.00;5025079;28;20024;-69
2023/07/15 04:45:57;;;;;;;15.25;6.30;;;;;;;19.45;96.18;100702.88;5038530;28;20040;-70
2023/07/15 04:48:23;;;;;;;10.00;5.90;;;;;;;19.36;95.52;100667.13;5042756;28;20032;-73
2023/07/15 04:50:52;;;;;;;8.00;5.50;;;;;;;19.67;95.70;100707.00;5029487;28;20029;-72
2023/07/15 04:53:17;;;;;;;8.00;5.70;;;;;;;19.76;95.19;100706.16;5041670;28;20025;-70
2023/07/15 04:55:43;;;;;;;6.25;5.20;;;;;;;19.84;94.25;100706.63;5040275;28;20474;-73
2023/07/15 04:58:11;;;;;;;9.52;5.43;;;;;;;19.86;93.30;100709.84;5041012;28;20147;-71
2023/07/15 05:00:36;;;;;;;12.63;5.20;;;;;;;19.96;92.65;100709.75;5043037;28;20032;-72
2023/07/15 05:03:04;;;;;;;9.32;5.40;;;;;;;20.05;92.31;100721.44;5064738;28;20390;-72
2023/07/15 05:05:30;;;;;;;10.75;5.20;;;;;;;20.09;92.63;100703.75;5066401;28;20101;-72
2023/07/15 05:08:00;;;;;;;10.10;5.38;;;;;;;20.22;90.49;100714.88;5062378;28;20052;-72
2023/07/15 05:10:25;;;;;;;8.95;4.82;;;;;;;20.29;89.51;100710.78;5064984;28;20032;-70
2023/07/15 05:12:51;;;;;;;11.77;5.45;;;;;;;20.45;89.24;100715.97;5043990;28;20032;-72
2023/07/15 05:15:16;;;;;;;7.28;4.90;;;;;;;20.55;88.16;100716.72;5060847;28;20538;-71
2023/07/15 05:17:44;;;;;;;11.07;5.28;;;;;;;20.64;87.64;100713.41;5063519;28;20032;-71
2023/07/15 05:20:10;;;;;;;7.95;4.90;;;;;;;20.73;86.92;100711.69;5044780;28;20029;-70
2023/07/15 05:22:35;;;;;;;9.75;4.90;;;;;;;20.82;86.55;100723.38;5065090;28;20443;-72
2023/07/15 05:25:01;;;;;;;5.60;4.18;;;;;;;20.95;85.92;100728.06;5069025;28;20152;-75
2023/07/15 05:27:26;;;;;;;8.75;4.50;;;;;;;20.99;85.04;100718.34;5064842;28;20058;-76
2023/07/15 05:29:52;;;;;;;5.32;3.80;;;;;;;21.09;83.10;100725.44;5074127;28;20032;-68
2023/07/15 05:32:17;;;;;;;10.65;4.45;;;;;;;21.17;83.67;100726.72;5073354;28;20028;-71
2023/07/15 05:34:42;;;;;;;8.40;4.47;;;;;;;21.28;82.10;100738.88;5070348;28;20052;-70
2023/07/15 05:37:08;;;;;;;8.52;4.53;;;;;;;21.37;81.92;100731.78;5066128;28;20024;-70
2023/07/15 05:39:33;;;;;;;8.27;4.50;;;;;;;21.39;81.05;100724.28;5053778;28;20024;-69
2023/07/15 05:41:58;;;;;;;7.68;4.05;;;;;;;21.51;80.98;100717.72;5070206;28;20389;-71
2023/07/15 05:44:24;;;;;;;11.30;4.30;;;;;;;21.64;79.97;100725.81;5072093;28;20029;-70
2023/07/15 05:46:50;;;;;;;8.93;4.40;;;;;;;21.78;81.13;100727.75;5050829;28;20051;-69
2023/07/15 05:49:15;;;;;;;5.30;4.53;;;;;;;21.82;81.43;100720.72;5069206;28;20028;-71
2023/07/15 05:51:41;;;;;;;8.15;4.28;;;;;;;21.92;80.24;100727.81;5065755;28;20074;-68
2023/07/15 05:54:06;;;;;;;6.07;4.60;;;;;;;22.03;80.85;100734.59;5039112;28;20395;-69
2023/07/15 05:56:31;;;;;;;8.23;5.72;;;;;;;22.03;80.58;100726.56;5070087;28;20024;-69
2023/07/15 05:58:57;;;;;;;10.55;5.53;;;;;;;22.23;80.18;100725.44;5067250;28;20020;-69
2023/07/15 06:01:22;;;;;;;5.95;4.68;;;;;;;22.27;79.56;100724.56;5059532;28;20453;-68
2023/07/15 06:03:48;;;;;;;13.63;7.70;;;;;;;22.34;79.87;100715.31;5043245;28;20040;-69
2023/07/15 06:06:13;;;;;;;10.07;5.32;;;;;;;22.50;78.19;100732.72;5026149;28;20028;-67
2023/07/15 06:08:39;;;;;;;6.28;4.55;;;;;;;22.59;77.82;100725.59;5035851;28;20572;-71
2023/07/15 06:11:04;;;;;;;9.18;5.32;;;;;;;22.71;78.53;100731.25;5020952;28;20025;-70
2023/07/15 06:13:29;;;;;;;7.55;4.70;;;;;;;22.82;78.11;100710.38;5021513;28;20040;-70
2023/07/15 06:15:55;;;;;;;13.13;8.60;;;;;;;22.95;78.86;100714.13;5039321;28;20037;-69
2023/07/15 06:18:20;;;;;;;9.70;6.40;;;;;;;23.10;77.16;100716.53;5024709;28;20016;-70
2023/07/15 06:20:47;;;;;;;8.45;5.45;;;;;;;23.17;76.98;100724.19;5035276;28;20455;-68
2023/07/15 06:23:13;;;;;;;9.32;5.65;;;;;;;23.17;76.20;100716.13;5038938;28;20021;-68
2023/07/15 06:25:39;;;;;;;5.85;4.43;;;;;;;23.29;75.76;100715.59;5037254;28;20044;-69
2023/07/15 06:28:05;;;;;;;6.53;4.03;;;;;;;23.46;75.16;100717.63;5035549;28;20113;-68
2023/07/15 06:30:30;;;;;;;5.35;4.22;;;;;;;23.46;74.53;100691.53;5036367;28;20032;-68
2023/07/15 06:32:56;;;;;;;11.52;4.75;;;;;;;23.61;73.68;100714.63;5019875;28;20055;-68
2023/07/15 06:35:21;;;;;;;6.40;4.32;;;;;;;23.75;72.94;100714.56;5019862;28;20037;-67
2023/07/15 06:37:50;;;;;;;6.93;4.40;;;;;;;23.88;74.08;100712.94;5039420;28;20103;-69
2023/07/15 06:40:16;;;;;;;;;;;;;;;23.98;73.91;100718.06;5039254;28;20033;-70
2023/07/15 06:42:46;;;;;;;7.88;4.38;;;;;;;24.01;73.59;100714.72;5039551;28;19928;-70
2023/07/15 06:45:12;;;;;;;8.18;4.60;;;;;;;24.06;73.33;100717.28;5039331;28;20667;-70
2023/07/15 06:47:42;;;;;;;8.27;4.20;;;;;;;24.17;73.76;100713.25;5042305;28;20037;-76
2023/07/15 06:50:09;;;;;;;6.05;4.47;;;;;;;24.23;72.07;100710.41;4998520;28;20037;-72
2023/07/15 06:53:01;;;;;;;8.90;3.92;;;;;;;24.24;72.34;100695.88;4987434;28;20041;-71
2023/07/15 06:55:32;;;;;;;4.93;3.83;;;;;;;24.46;70.32;100716.56;5002995;28;20046;-70
2023/07/15 06:58:02;;;;;;;5.70;3.72;;;;;;;24.20;70.10;100679.53;4984528;28;20491;-71
2023/07/15 07:00:39;;;;;;;6.50;4.28;;;;;;;24.51;71.60;100711.06;5001315;28;20084;-71
2023/07/15 07:03:05;;;;;;;5.30;3.45;;;;;;;24.13;71.00;100653.06;4989812;28;20021;-72
2023/07/15 07:05:30;;;;;;;11.90;3.60;;;;;;;24.44;69.12;100689.16;5001902;28;20435;-71
2023/07/15 07:07:55;;;;;;;4.90;3.50;;;;;;;24.54;70.38;100696.97;5003415;28;20046;-71
2023/07/15 07:10:21;;;;;;;4.38;3.65;;;;;;;24.76;69.71;100718.44;5000514;28;20042;-70
2023/07/15 07:12:46;;;;;;;4.22;3.83;;;;;;;24.74;68.12;100701.00;5006448;28;20062;-71
2023/07/15 07:15:12;;;;;;;7.05;3.70;;;;;;;24.81;68.54;100715.59;5002235;28;20073;-70
2023/07/15 07:17:38;;;;;;;7.82;3.83;;;;;;;24.82;67.47;100711.78;5004121;28;20033;-78
2023/07/15 07:20:04;;;;;;;5.10;3.63;;;;;;;24.86;66.80;100703.88;5006949;28;20030;-77
2023/07/15 07:22:29;;;;;;;9.07;4.00;;;;;;;24.95;68.99;100701.19;5040120;28;20036;-77
2023/07/15 07:24:55;;;;;;;5.07;4.10;;;;;;;25.06;69.19;100702.47;5028781;28;20062;-76
2023/07/15 07:27:21;;;;;;;7.07;4.35;;;;;;;25.12;69.09;100701.25;5045836;28;20029;-75
2023/07/15 07:29:46;;;;;;;6.28;4.00;;;;;;;25.20;67.92;100699.69;5044379;28;20035;-75
2023/07/15 07:32:11;;;;;;;6.50;3.88;;;;;;;25.03;66.57;100665.41;5040931;28;20565;-76
2023/07/15 07:34:37;;;;;;;7.53;4.10;;;;;;;25.31;66.72;100708.25;5042818;28;20500;-76
2023/07/15 07:37:02;;;;;;;7.78;4.30;;;;;;;25.28;66.87;100698.88;5047857;28;20048;-77
2023/07/15 07:39:28;;;;;;;7.43;4.00;;;;;;;25.42;68.26;100717.59;5027436;28;20055;-76
2023/07/15 07:41:55;;;;;;;11.55;4.22;;;;;;;25.47;67.67;100709.34;5042201;28;20028;-76
2023/07/15 07:44:20;;;;;;;6.93;3.72;;;;;;;25.59;66.66;100714.09;5044181;28;20033;-77
2023/07/15 07:46:46;;;;;;;5.43;3.50;;;;;;;25.62;66.22;100702.69;5042491;28;20029;-70
2023/07/15 07:49:11;;;;;;;9.07;3.90;;;;;;;25.65;66.47;100693.97;5024819;28;20112;-71
2023/07/15 07:51:36;;;;;;;5.30;3.67;;;;;;;25.73;64.96;100697.75;5040367;28;20405;-71
2023/07/15 07:54:02;;;;;;;5.88;3.38;;;;;;;25.81;65.69;100700.47;5025727;28;20075;-71
2023/07/15 07:56:27;;;;;;;6.20;3.60;;;;;;;25.87;64.79;100693.00;5040199;28;20039;-71
2023/07/15 07:58:57;;;;;;;5.43;3.30;;;;;;;25.93;65.39;100699.00;5042179;28;20020;-71
2023/07/15 08:01:26;;;;;;;3.55;3.25;;;;;;;25.99;65.48;100705.84;5039586;28;20522;-71
2023/07/15 08:03:53;;;;;;;;;;;;;;;26.19;64.19;100710.53;5030929;28;20028;-72
2023/07/15 08:06:20;;;;;;;4.60;3.25;;;;;;;26.16;63.82;100703.09;5027582;28;19973;-71
2023/07/15 08:08:45;;;;;;;5.35;3.40;;;;;;;26.26;64.42;100710.03;5039922;28;20066;-71
2023/07/15 08:11:11;;;;;;;4.57;3.53;;;;;;;26.18;64.57;100697.38;5042810;28;20028;-71
2023/07/15 08:13:36;;;;;;;5.82;3.58;;;;;;;26.37;65.23;100716.66;5037069;28;20022;-71
2023/07/15 08:16:01;;;;;;;6.88;3.65;;;;;;;26.44;64.52;100714.25;5042840;28;20040;-71
2023/07/15 08:18:27;;;;;;;4.68;3.17;;;;;;;26.51;64.25;100717.25;5043559;28;20036;-70
2023/07/15 08:20:52;;;;;;;8.18;3.50;;;;;;;26.50;64.04;100706.75;5041395;28;20493;-70
2023/07/15 08:23:20;;;;;;;4.20;3.53;;;;;;;26.66;63.05;100707.81;5042941;28;20026;-71
2023/07/15 08:25:45;;;;;;;5.63;3.50;;;;;;;26.70;62.78;100707.97;5041689;28;20029;-72
2023/07/15 08:28:10;;;;;;;4.05;3.17;;;;;;;26.86;59.13;100711.69;5022481;28;20032;-71
2023/07/15 08:30:36;;;;;;;3.92;3.20;;;;;;;26.84;58.85;100703.13;5028742;28;20647;-71
2023/07/15 08:33:05;;;;;;;6.97;3.40;;;;;;;26.95;59.88;100701.59;5040965;28;20017;-72
2023/07/15 08:35:31;;;;;;;5.18;3.13;;;;;;;26.97;59.37;100703.22;5028858;28;20033;-71
2023/07/15 08:37:57;;;;;;;4.75;3.13;;;;;;;27.06;59.76;100709.34;5042692;28;20021;-71
2023/07/15 08:40:25;;;;;;;6.90;2.97;;;;;;;27.04;57.16;100695.38;5043816;28;20131;-71
2023/07/15 08:42:50;;;;;;;3.42;2.63;;;;;;;27.12;57.06;100697.22;5026575;28;20029;-71
2023/07/15 08:45:17;;;;;;;5.10;3.30;;;;;;;27.30;57.45;100701.41;5040033;28;20082;-69
2023/07/15 08:47:44;;;;;;;2.95;2.53;;;;;;;27.31;56.97;100692.16;5036081;28;20032;-67
2023/07/15 08:50:18;;;;;;;5.00;2.83;;;;;;;27.41;55.83;100698.28;5039866;28;20729;-67
2023/07/15 08:52:44;;;;;;;3.22;2.70;;;;;;;27.50;54.49;100699.00;5038168;28;20454;-69
2023/07/15 08:55:10;;;;;;;2.75;2.38;;;;;;;27.65;52.83;100703.78;5026520;28;20755;-72
2023/07/15 08:57:36;;;;;;;5.47;2.97;;;;;;;27.73;54.26;100699.44;5040803;28;20033;-68
2023/07/15 09:00:09;;;;;;;5.65;2.55;;;;;;;27.85;52.73;100706.81;5024890;28;20626;-69
2023/07/15 09:02:37;;;;;;;4.75;2.40;;;;;;;27.86;52.11;100703.00;5060210;28;20072;-71
2023/07/15 09:05:05;;;;;;;3.50;2.70;;;;;;;28.05;50.00;100707.88;5062965;28;20111;-69
2023/07/15 09:07:31;;;;;;;4.32;2.55;;;;;;;28.04;51.46;100698.97;5061747;28;20024;-69
2023/07/15 09:10:04;;;;;;;4.65;2.88;;;;;;;28.09;49.90;100706.88;5059010;28;20257;-70
2023/07/15 09:12:29;;;;;;;4.80;2.78;;;;;;;28.13;50.55;100707.75;5059696;28;20032;-70
2023/07/15 09:14:55;;;;;;;4.35;2.42;;;;;;;28.12;47.64;100705.41;5063543;28;20020;-70
2023/07/15 09:17:21;;;;;;;4.28;2.53;;;;;;;28.12;47.72;100708.91;5063401;28;20066;-70
2023/07/15 09:19:47;;;;;;;3.60;2.40;;;;;;;28.21;48.54;100715.00;5059989;28;20122;-69
2023/07/15 09:22:13;;;;;;;6.00;2.50;;;;;;;28.23;46.70;100709.28;5060756;28;20573;-69
2023/07/15 09:24:38;;;;;;;4.03;2.15;;;;;;;28.28;43.25;100708.25;5061728;28;20119;-70
2023/07/15 09:27:05;;;;;;;3.78;2.30;;;;;;;28.35;41.86;100709.28;5061576;28;20035;-69
2023/07/15 09:29:31;;;;;;;3.63;1.98;;;;;;;28.38;37.91;100705.09;5059001;28;20028;-68
2023/07/15 09:31:57;;;;;;;3.33;1.83;;;;;;;28.53;40.68;100709.88;5060313;28;20074;-70
2023/07/15 09:34:26;;;;;;;4.72;2.20;;;;;;;28.63;43.03;100714.03;5058096;28;20086;-69
2023/07/15 09:36:53;;;;;;;3.08;2.03;;;;;;;28.74;44.04;100714.38;5060661;28;20094;-68
2023/07/15 09:39:22;;;;;;;2.65;2.08;;;;;;;28.89;40.49;100710.19;5058010;28;20547;-66
2023/07/15 09:42:04;;;;;;;;;;;;;;;29.00;41.26;100711.31;5057859;28;20040;-67
2023/07/15 09:44:37;;;;;;;3.03;2.20;;;;;;;29.01;39.68;100689.25;5058876;28;19916;-66
2023/07/15 09:47:04;;;;;;;3.63;1.95;;;;;;;29.06;38.73;100693.66;5057026;28;20038;-68
2023/07/15 09:49:30;;;;;;;5.35;2.30;;;;;;;29.21;41.23;100703.00;5061010;28;20028;-68
2023/07/15 09:51:57;;;;;;;4.55;2.30;;;;;;;29.22;42.23;100697.25;5058647;28;20095;-67
2023/07/15 09:54:25;;;;;;;2.30;2.10;;;;;;;29.08;40.39;100666.22;5061931;28;20119;-67
2023/07/15 09:56:58;;;;;;;3.07;2.20;;;;;;;29.37;37.88;100698.44;5062573;28;20046;-67
2023/07/15 09:59:28;;;;;;;6.63;2.47;;;;;;;29.41;35.25;100695.84;5060597;28;20027;-70
2023/07/15 10:02:03;;;;;;;2.20;1.92;;;;;;;29.45;36.43;100697.50;5055419;28;20135;-71
2023/07/15 10:04:32;;;;;;;2.20;1.90;;;;;;;29.45;37.42;100683.94;5059990;28;20016;-70
2023/07/15 10:07:00;;;;;;;3.30;2.10;;;;;;;29.60;37.97;100685.13;5061597;28;20031;-70
2023/07/15 10:09:26;;;;;;;3.13;2.10;;;;;;;29.69;36.53;100685.00;5062421;28;20390;-68
2023/07/15 10:11:54;;;;;;;3.35;1.77;;;;;;;29.68;36.68;100681.47;5059059;28;20044;-69
2023/07/15 10:14:21;;;;;;;5.57;2.10;;;;;;;29.74;36.35;100682.03;5063845;28;20017;-70
2023/07/15 10:17:09;;;;;;;2.55;2.00;;;;;;;29.76;37.62;100676.22;5058831;28;20106;-70
2023/07/15 10:19:38;;;;;;;5.53;2.10;;;;;;;29.89;38.24;100688.59;5047009;28;20505;-70
2023/07/15 10:22:03;;;;;;;3.72;2.20;;;;;;;29.90;38.56;100680.09;5052653;28;20335;-70
2023/07/15 10:24:29;;;;;;;3.90;1.92;;;;;;;29.91;36.29;100667.34;5060846;28;20482;-70
2023/07/15 10:26:54;;;;;;;1.95;1.80;;;;;;;29.94;35.55;100672.06;5058873;28;20028;-70
2023/07/15 10:29:23;;;;;;;3.75;1.92;;;;;;;29.94;35.96;100674.00;5056935;28;20021;-70
2023/07/15 10:32:14;;;;;;;5.47;2.63;;;;;;;29.98;37.67;100680.28;5058607;28;20044;-72
2023/07/15 10:34:46;;;;;;;10.57;2.05;;;;;;;30.06;37.90;100680.13;5053489;28;20568;-71
2023/07/15 10:37:13;;;;;;;2.25;1.90;;;;;;;30.09;36.90;100675.91;5052764;28;20029;-73
2023/07/15 10:39:38;;;;;;;3.70;2.15;;;;;;;30.13;36.46;100673.28;5060000;28;20040;-73
2023/07/15 10:42:09;;;;;;;2.85;1.98;;;;;;;30.17;36.20;100674.16;5061098;28;20032;-72
2023/07/15 10:44:40;;;;;;;2.97;1.80;;;;;;;30.23;36.97;100676.25;5055577;28;20032;-71
2023/07/15 10:47:06;;;;;;;2.88;2.05;;;;;;;30.22;36.36;100671.19;5051291;28;20103;-70
2023/07/15 10:49:32;;;;;;;4.07;2.17;;;;;;;30.30;37.29;100675.66;5053971;28;20136;-76
2023/07/15 10:51:58;;;;;;;2.88;2.10;;;;;;;30.38;37.53;100673.91;5061211;28;20017;-72
2023/07/15 10:54:26;;;;;;;3.00;2.10;;;;;;;30.46;37.46;100670.22;5062793;28;20028;-71
2023/07/15 10:56:52;;;;;;;2.63;2.07;;;;;;;30.52;36.88;100676.94;5059933;28;20078;-72
2023/07/15 10:59:17;;;;;;;5.50;2.13;;;;;;;30.56;37.40;100661.53;5055016;28;20312;-70
2023/07/15 11:01:44;;;;;;;2.33;2.10;;;;;;;30.62;37.19;100672.88;5041793;28;20081;-70
2023/07/15 11:04:13;;;;;;;2.85;2.08;;;;;;;30.61;37.44;100660.47;5020660;28;20032;-70
2023/07/15 11:06:38;;;;;;;3.53;2.20;;;;;;;30.70;37.89;100664.56;5039958;28;20117;-70
2023/07/15 11:09:18;;;;;;;3.97;1.90;;;;;;;30.70;37.57;100652.91;5025849;28;20535;-70
2023/07/15 11:11:44;;;;;;;3.40;1.85;;;;;;;30.74;37.17;100667.34;5035560;28;20830;-70
2023/07/15 11:14:26;;;;;;;2.88;2.20;;;;;;;30.77;37.90;100661.19;5033377;28;20111;-71
2023/07/15 11:16:58;;;;;;;2.50;1.85;;;;;;;30.86;37.93;100652.84;5028123;28;20759;-71
2023/07/15 11:19:26;;;;;;;3.60;1.92;;;;;;;30.69;37.90;100633.06;5033341;28;20037;-71
2023/07/15 11:21:52;;;;;;;3.77;1.80;;;;;;;30.90;37.81;100653.72;5031224;28;20029;-71